sensor_id;sensor_type;location;lat;lon;timestamp;pressure;altitude;pressure_sealevel;temperature;humidity
67373;BME280;54257;54.496;18.412;2022-12-18T00:01:33;101187.21;;;-5.87;86.23
67373;BME280;54257;54.496;18.412;2022-12-18T00:04:08;101190.32;;;-5.93;86.05
67373;BME280;54257;54.496;18.412;2022-12-18T00:06:42;101188.56;;;-5.99;86.30
67373;BME280;54257;54.496;18.412;2022-12-18T00:09:09;101193.36;;;-6.02;86.54
67373;BME280;54257;54.496;18.412;2022-12-18T00:11:36;101198.38;;;-6.05;86.88
67373;BME280;54257;54.496;18.412;2022-12-18T00:14:03;101198.69;;;-6.07;86.81
67373;BME280;54257;54.496;18.412;2022-12-18T00:16:31;101200.86;;;-6.09;86.91
67373;BME280;54257;54.496;18.412;2022-12-18T00:19:00;101205.17;;;-6.11;86.91
67373;BME280;54257;54.496;18.412;2022-12-18T00:21:29;101203.20;;;-6.13;86.84
67373;BME280;54257;54.496;18.412;2022-12-18T00:23:57;101196.56;;;-6.15;87.14
67373;BME280;54257;54.496;18.412;2022-12-18T00:26:29;101194.95;;;-6.14;86.92
67373;BME280;54257;54.496;18.412;2022-12-18T00:29:03;101195.36;;;-6.15;86.94
67373;BME280;54257;54.496;18.412;2022-12-18T00:31:37;101198.33;;;-6.16;86.85
67373;BME280;54257;54.496;18.412;2022-12-18T00:34:10;101200.80;;;-6.17;86.96
67373;BME280;54257;54.496;18.412;2022-12-18T00:36:39;101199.76;;;-6.18;86.92
67373;BME280;54257;54.496;18.412;2022-12-18T00:39:06;101208.52;;;-6.17;87.01
67373;BME280;54257;54.496;18.412;2022-12-18T00:41:34;101209.91;;;-6.16;87.06
67373;BME280;54257;54.496;18.412;2022-12-18T00:44:19;101207.14;;;-6.17;87.06
67373;BME280;54257;54.496;18.412;2022-12-18T00:46:47;101209.59;;;-6.12;87.12
67373;BME280;54257;54.496;18.412;2022-12-18T00:49:17;101209.80;;;-6.09;87.18
67373;BME280;54257;54.496;18.412;2022-12-18T00:51:45;101207.26;;;-6.08;87.27
67373;BME280;54257;54.496;18.412;2022-12-18T00:54:12;101209.43;;;-6.08;87.73
67373;BME280;54257;54.496;18.412;2022-12-18T00:56:40;101210.98;;;-6.07;88.01
67373;BME280;54257;54.496;18.412;2022-12-18T00:59:07;101211.55;;;-6.07;88.29
67373;BME280;54257;54.496;18.412;2022-12-18T01:01:34;101211.20;;;-6.05;88.42
67373;BME280;54257;54.496;18.412;2022-12-18T01:04:02;101209.92;;;-6.03;88.39
67373;BME280;54257;54.496;18.412;2022-12-18T01:06:30;101215.40;;;-6.00;88.70
67373;BME280;54257;54.496;18.412;2022-12-18T01:08:57;101217.81;;;-5.97;88.83
67373;BME280;54257;54.496;18.412;2022-12-18T01:11:24;101224.88;;;-5.95;88.77
67373;BME280;54257;54.496;18.412;2022-12-18T01:13:53;101227.31;;;-5.90;88.73
67373;BME280;54257;54.496;18.412;2022-12-18T01:16:21;101229.33;;;-5.88;88.76
67373;BME280;54257;54.496;18.412;2022-12-18T01:18:52;101227.96;;;-5.86;89.16
67373;BME280;54257;54.496;18.412;2022-12-18T01:21:22;101233.05;;;-5.83;89.60
67373;BME280;54257;54.496;18.412;2022-12-18T01:23:54;101233.88;;;-5.81;89.75
67373;BME280;54257;54.496;18.412;2022-12-18T01:26:22;101237.84;;;-5.80;89.46
67373;BME280;54257;54.496;18.412;2022-12-18T01:28:50;101241.92;;;-5.78;89.15
67373;BME280;54257;54.496;18.412;2022-12-18T01:31:29;101240.29;;;-5.76;88.83
67373;BME280;54257;54.496;18.412;2022-12-18T01:34:00;101240.48;;;-5.74;88.71
67373;BME280;54257;54.496;18.412;2022-12-18T01:36:30;101244.05;;;-5.71;88.65
67373;BME280;54257;54.496;18.412;2022-12-18T01:39:04;101247.63;;;-5.69;88.58
67373;BME280;54257;54.496;18.412;2022-12-18T01:41:33;101244.17;;;-5.67;88.48
67373;BME280;54257;54.496;18.412;2022-12-18T01:49:47;101245.42;;;-5.59;88.27
67373;BME280;54257;54.496;18.412;2022-12-18T01:52:15;101247.52;;;-5.56;88.46
67373;BME280;54257;54.496;18.412;2022-12-18T01:54:44;101243.44;;;-5.54;88.52
67373;BME280;54257;54.496;18.412;2022-12-18T01:57:12;101239.35;;;-5.52;88.37
67373;BME280;54257;54.496;18.412;2022-12-18T01:59:39;101241.09;;;-5.50;88.57
67373;BME280;54257;54.496;18.412;2022-12-18T02:02:08;101246.09;;;-5.46;88.68
67373;BME280;54257;54.496;18.412;2022-12-18T02:04:35;101249.75;;;-5.45;88.71
67373;BME280;54257;54.496;18.412;2022-12-18T02:09:47;101245.23;;;-5.42;88.52
67373;BME280;54257;54.496;18.412;2022-12-18T02:12:27;101246.35;;;-5.41;88.51
67373;BME280;54257;54.496;18.412;2022-12-18T02:15:07;101254.48;;;-5.39;88.73
67373;BME280;54257;54.496;18.412;2022-12-18T02:18:07;101254.66;;;-5.37;88.83
67373;BME280;54257;54.496;18.412;2022-12-18T02:20:47;101257.30;;;-5.36;89.16
67373;BME280;54257;54.496;18.412;2022-12-18T02:26:07;101260.80;;;-5.32;89.67
67373;BME280;54257;54.496;18.412;2022-12-18T02:28:51;101266.11;;;-5.29;89.92
67373;BME280;54257;54.496;18.412;2022-12-18T02:31:29;101264.86;;;-5.26;90.01
67373;BME280;54257;54.496;18.412;2022-12-18T02:34:00;101265.50;;;-5.25;90.02
67373;BME280;54257;54.496;18.412;2022-12-18T02:36:29;101267.30;;;-5.24;90.17
67373;BME280;54257;54.496;18.412;2022-12-18T02:39:00;101265.91;;;-5.21;90.58
67373;BME280;54257;54.496;18.412;2022-12-18T02:41:29;101272.23;;;-5.18;90.84
67373;BME280;54257;54.496;18.412;2022-12-18T02:44:10;101272.95;;;-5.14;90.95
67373;BME280;54257;54.496;18.412;2022-12-18T02:46:48;101270.95;;;-5.13;90.91
67373;BME280;54257;54.496;18.412;2022-12-18T02:57:42;101275.59;;;-5.06;90.99
67373;BME280;54257;54.496;18.412;2022-12-18T03:00:20;101277.31;;;-5.03;91.09
67373;BME280;54257;54.496;18.412;2022-12-18T03:03:06;101281.14;;;-5.02;91.19
67373;BME280;54257;54.496;18.412;2022-12-18T03:05:59;101283.31;;;-5.00;91.03
67373;BME280;54257;54.496;18.412;2022-12-18T03:08:36;101285.40;;;-4.99;91.24
67373;BME280;54257;54.496;18.412;2022-12-18T03:11:07;101288.68;;;-4.98;91.38
67373;BME280;54257;54.496;18.412;2022-12-18T03:13:43;101289.67;;;-4.96;91.40
67373;BME280;54257;54.496;18.412;2022-12-18T03:16:19;101294.60;;;-4.96;91.60
67373;BME280;54257;54.496;18.412;2022-12-18T03:18:54;101295.77;;;-4.94;91.78
67373;BME280;54257;54.496;18.412;2022-12-18T03:21:29;101298.70;;;-4.93;91.80
67373;BME280;54257;54.496;18.412;2022-12-18T03:23:57;101297.77;;;-4.91;91.94
67373;BME280;54257;54.496;18.412;2022-12-18T03:26:26;101300.21;;;-4.90;91.82
67373;BME280;54257;54.496;18.412;2022-12-18T03:28:59;101304.06;;;-4.88;91.82
67373;BME280;54257;54.496;18.412;2022-12-18T03:31:29;101307.98;;;-4.87;91.88
67373;BME280;54257;54.496;18.412;2022-12-18T03:34:09;101312.58;;;-4.86;92.04
67373;BME280;54257;54.496;18.412;2022-12-18T03:36:36;101309.44;;;-4.86;92.28
67373;BME280;54257;54.496;18.412;2022-12-18T03:39:03;101313.23;;;-4.84;91.93
67373;BME280;54257;54.496;18.412;2022-12-18T03:44:17;101321.91;;;-4.81;92.08
67373;BME280;54257;54.496;18.412;2022-12-18T03:47:14;101320.92;;;-4.81;91.95
67373;BME280;54257;54.496;18.412;2022-12-18T03:49:55;101321.14;;;-4.81;91.88
67373;BME280;54257;54.496;18.412;2022-12-18T03:52:30;101326.13;;;-4.80;91.90
67373;BME280;54257;54.496;18.412;2022-12-18T03:55:00;101325.64;;;-4.80;91.88
67373;BME280;54257;54.496;18.412;2022-12-18T03:57:30;101328.66;;;-4.80;92.06
67373;BME280;54257;54.496;18.412;2022-12-18T04:00:09;101329.73;;;-4.79;91.95
67373;BME280;54257;54.496;18.412;2022-12-18T04:03:20;101332.75;;;-4.79;91.86
67373;BME280;54257;54.496;18.412;2022-12-18T04:05:54;101334.39;;;-4.79;91.94
67373;BME280;54257;54.496;18.412;2022-12-18T04:08:22;101337.63;;;-4.78;91.86
67373;BME280;54257;54.496;18.412;2022-12-18T04:10:51;101340.48;;;-4.78;91.82
67373;BME280;54257;54.496;18.412;2022-12-18T04:13:27;101340.98;;;-4.78;91.70
67373;BME280;54257;54.496;18.412;2022-12-18T04:15:54;101341.63;;;-4.78;91.67
67373;BME280;54257;54.496;18.412;2022-12-18T04:18:21;101343.23;;;-4.79;91.69
67373;BME280;54257;54.496;18.412;2022-12-18T04:20:49;101343.18;;;-4.80;91.71
67373;BME280;54257;54.496;18.412;2022-12-18T04:23:15;101347.36;;;-4.80;91.70
67373;BME280;54257;54.496;18.412;2022-12-18T04:25:43;101350.74;;;-4.79;91.65
67373;BME280;54257;54.496;18.412;2022-12-18T04:28:10;101353.03;;;-4.80;91.60
67373;BME280;54257;54.496;18.412;2022-12-18T04:30:37;101352.25;;;-4.79;91.58
67373;BME280;54257;54.496;18.412;2022-12-18T04:33:10;101353.10;;;-4.79;91.52
67373;BME280;54257;54.496;18.412;2022-12-18T04:35:38;101350.45;;;-4.79;91.38
67373;BME280;54257;54.496;18.412;2022-12-18T04:38:06;101355.14;;;-4.80;91.31
67373;BME280;54257;54.496;18.412;2022-12-18T04:40:36;101355.23;;;-4.81;91.25
67373;BME280;54257;54.496;18.412;2022-12-18T04:43:04;101357.19;;;-4.83;91.22
67373;BME280;54257;54.496;18.412;2022-12-18T04:45:32;101361.83;;;-4.85;91.20
67373;BME280;54257;54.496;18.412;2022-12-18T04:48:00;101367.42;;;-4.86;91.12
67373;BME280;54257;54.496;18.412;2022-12-18T04:50:29;101372.19;;;-4.88;90.96
67373;BME280;54257;54.496;18.412;2022-12-18T04:52:57;101372.02;;;-4.89;90.74
67373;BME280;54257;54.496;18.412;2022-12-18T04:55:27;101372.35;;;-4.91;90.74
67373;BME280;54257;54.496;18.412;2022-12-18T04:57:54;101368.22;;;-4.94;90.74
67373;BME280;54257;54.496;18.412;2022-12-18T05:00:22;101369.61;;;-4.93;90.61
67373;BME280;54257;54.496;18.412;2022-12-18T05:02:49;101370.95;;;-4.97;90.39
67373;BME280;54257;54.496;18.412;2022-12-18T05:05:16;101372.09;;;-4.99;90.42
67373;BME280;54257;54.496;18.412;2022-12-18T05:07:43;101374.45;;;-5.00;90.40
67373;BME280;54257;54.496;18.412;2022-12-18T05:10:10;101379.80;;;-5.01;90.42
67373;BME280;54257;54.496;18.412;2022-12-18T05:12:37;101388.00;;;-5.03;90.43
67373;BME280;54257;54.496;18.412;2022-12-18T05:15:27;101391.73;;;-5.04;90.41
67373;BME280;54257;54.496;18.412;2022-12-18T05:17:55;101397.42;;;-5.05;90.37
67373;BME280;54257;54.496;18.412;2022-12-18T05:20:22;101398.85;;;-5.06;90.33
67373;BME280;54257;54.496;18.412;2022-12-18T05:22:50;101405.55;;;-5.07;90.20
67373;BME280;54257;54.496;18.412;2022-12-18T05:25:18;101406.65;;;-5.08;90.35
67373;BME280;54257;54.496;18.412;2022-12-18T05:27:46;101411.91;;;-5.08;90.41
67373;BME280;54257;54.496;18.412;2022-12-18T05:30:14;101415.41;;;-5.10;90.40
67373;BME280;54257;54.496;18.412;2022-12-18T05:32:42;101416.43;;;-5.12;90.27
67373;BME280;54257;54.496;18.412;2022-12-18T05:35:10;101415.52;;;-5.12;90.21
67373;BME280;54257;54.496;18.412;2022-12-18T05:37:38;101415.35;;;-5.14;90.20
67373;BME280;54257;54.496;18.412;2022-12-18T05:40:05;101423.15;;;-5.16;90.11
67373;BME280;54257;54.496;18.412;2022-12-18T05:42:33;101428.11;;;-5.19;90.06
67373;BME280;54257;54.496;18.412;2022-12-18T05:45:00;101430.06;;;-5.21;90.01
67373;BME280;54257;54.496;18.412;2022-12-18T05:47:27;101434.57;;;-5.23;89.98
67373;BME280;54257;54.496;18.412;2022-12-18T05:49:55;101435.38;;;-5.24;89.81
67373;BME280;54257;54.496;18.412;2022-12-18T05:52:22;101435.38;;;-5.26;89.87
67373;BME280;54257;54.496;18.412;2022-12-18T05:54:49;101436.23;;;-5.26;89.88
67373;BME280;54257;54.496;18.412;2022-12-18T05:57:16;101432.70;;;-5.26;89.81
67373;BME280;54257;54.496;18.412;2022-12-18T05:59:44;101432.20;;;-5.26;89.75
67373;BME280;54257;54.496;18.412;2022-12-18T06:02:11;101435.35;;;-5.25;89.86
67373;BME280;54257;54.496;18.412;2022-12-18T06:04:38;101437.23;;;-5.23;90.02
67373;BME280;54257;54.496;18.412;2022-12-18T06:07:05;101439.77;;;-5.19;90.12
67373;BME280;54257;54.496;18.412;2022-12-18T06:09:32;101437.48;;;-5.14;90.55
67373;BME280;54257;54.496;18.412;2022-12-18T06:11:59;101439.30;;;-5.09;90.56
67373;BME280;54257;54.496;18.412;2022-12-18T06:14:26;101442.52;;;-5.05;90.59
67373;BME280;54257;54.496;18.412;2022-12-18T06:16:53;101446.05;;;-5.01;90.53
67373;BME280;54257;54.496;18.412;2022-12-18T06:19:21;101442.52;;;-5.00;90.41
67373;BME280;54257;54.496;18.412;2022-12-18T06:21:48;101448.98;;;-4.99;90.28
67373;BME280;54257;54.496;18.412;2022-12-18T06:24:16;101455.33;;;-4.97;90.15
67373;BME280;54257;54.496;18.412;2022-12-18T06:26:44;101458.11;;;-4.97;90.23
67373;BME280;54257;54.496;18.412;2022-12-18T06:29:11;101459.91;;;-4.98;89.92
67373;BME280;54257;54.496;18.412;2022-12-18T06:31:38;101463.23;;;-5.00;89.93
67373;BME280;54257;54.496;18.412;2022-12-18T06:34:05;101468.55;;;-5.03;89.77
67373;BME280;54257;54.496;18.412;2022-12-18T06:36:33;101473.16;;;-5.05;89.75
67373;BME280;54257;54.496;18.412;2022-12-18T06:39:00;101478.39;;;-5.08;89.58
67373;BME280;54257;54.496;18.412;2022-12-18T06:41:27;101482.51;;;-5.10;89.51
67373;BME280;54257;54.496;18.412;2022-12-18T06:43:55;101479.47;;;-5.12;89.65
67373;BME280;54257;54.496;18.412;2022-12-18T06:46:22;101482.44;;;-5.13;89.78
67373;BME280;54257;54.496;18.412;2022-12-18T06:48:50;101484.46;;;-5.12;89.87
67373;BME280;54257;54.496;18.412;2022-12-18T06:51:19;101487.27;;;-5.14;89.74
67373;BME280;54257;54.496;18.412;2022-12-18T06:53:46;101489.07;;;-5.14;89.69
67373;BME280;54257;54.496;18.412;2022-12-18T06:56:13;101485.75;;;-5.16;89.76
67373;BME280;54257;54.496;18.412;2022-12-18T06:58:41;101490.46;;;-5.19;89.74
67373;BME280;54257;54.496;18.412;2022-12-18T07:01:11;101495.04;;;-5.21;89.80
67373;BME280;54257;54.496;18.412;2022-12-18T07:03:40;101513.59;;;-5.20;89.87
67373;BME280;54257;54.496;18.412;2022-12-18T07:06:16;101517.09;;;-5.20;89.99
67373;BME280;54257;54.496;18.412;2022-12-18T07:08:45;101516.61;;;-5.20;90.05
67373;BME280;54257;54.496;18.412;2022-12-18T07:11:13;101520.79;;;-5.20;90.06
67373;BME280;54257;54.496;18.412;2022-12-18T07:13:40;101520.01;;;-5.21;90.00
67373;BME280;54257;54.496;18.412;2022-12-18T07:16:16;101522.71;;;-5.22;89.85
67373;BME280;54257;54.496;18.412;2022-12-18T07:18:44;101527.27;;;-5.23;89.77
67373;BME280;54257;54.496;18.412;2022-12-18T07:21:14;101528.00;;;-5.24;89.90
67373;BME280;54257;54.496;18.412;2022-12-18T07:23:42;101526.84;;;-5.26;89.72
67373;BME280;54257;54.496;18.412;2022-12-18T07:26:11;101529.52;;;-5.27;89.59
67373;BME280;54257;54.496;18.412;2022-12-18T07:28:40;101529.98;;;-5.29;89.58
67373;BME280;54257;54.496;18.412;2022-12-18T07:31:13;101526.13;;;-5.32;89.54
67373;BME280;54257;54.496;18.412;2022-12-18T07:33:41;101534.13;;;-5.32;89.64
67373;BME280;54257;54.496;18.412;2022-12-18T07:36:09;101544.98;;;-5.34;89.82
67373;BME280;54257;54.496;18.412;2022-12-18T07:38:37;101550.98;;;-5.33;89.70
67373;BME280;54257;54.496;18.412;2022-12-18T07:41:07;101560.30;;;-5.34;89.83
67373;BME280;54257;54.496;18.412;2022-12-18T07:43:34;101559.17;;;-5.36;89.89
67373;BME280;54257;54.496;18.412;2022-12-18T07:46:02;101563.61;;;-5.32;90.02
67373;BME280;54257;54.496;18.412;2022-12-18T07:48:30;101558.46;;;-5.31;89.94
67373;BME280;54257;54.496;18.412;2022-12-18T07:51:05;101548.29;;;-5.32;89.33
67373;BME280;54257;54.496;18.412;2022-12-18T07:53:34;101550.06;;;-5.38;88.82
67373;BME280;54257;54.496;18.412;2022-12-18T07:56:06;101548.19;;;-5.40;89.28
67373;BME280;54257;54.496;18.412;2022-12-18T07:58:35;101552.77;;;-5.37;89.67
67373;BME280;54257;54.496;18.412;2022-12-18T08:01:10;101556.50;;;-5.35;89.84
67373;BME280;54257;54.496;18.412;2022-12-18T08:03:39;101558.34;;;-5.32;90.02
67373;BME280;54257;54.496;18.412;2022-12-18T08:06:09;101564.15;;;-5.27;90.07
67373;BME280;54257;54.496;18.412;2022-12-18T08:08:36;101557.90;;;-5.23;90.19
67373;BME280;54257;54.496;18.412;2022-12-18T08:11:04;101561.20;;;-5.17;90.19
67373;BME280;54257;54.496;18.412;2022-12-18T08:13:31;101560.86;;;-5.12;90.24
67373;BME280;54257;54.496;18.412;2022-12-18T08:16:04;101559.45;;;-5.09;90.31
67373;BME280;54257;54.496;18.412;2022-12-18T08:18:32;101561.30;;;-5.03;90.30
67373;BME280;54257;54.496;18.412;2022-12-18T08:21:23;101564.14;;;-4.98;90.37
67373;BME280;54257;54.496;18.412;2022-12-18T08:23:53;101564.71;;;-4.93;90.46
67373;BME280;54257;54.496;18.412;2022-12-18T08:26:21;101561.16;;;-4.89;90.42
67373;BME280;54257;54.496;18.412;2022-12-18T08:28:50;101555.27;;;-4.85;90.30
67373;BME280;54257;54.496;18.412;2022-12-18T08:31:18;101557.94;;;-4.80;90.22
67373;BME280;54257;54.496;18.412;2022-12-18T08:33:50;101555.86;;;-4.75;90.29
67373;BME280;54257;54.496;18.412;2022-12-18T08:36:17;101560.73;;;-4.70;90.24
67373;BME280;54257;54.496;18.412;2022-12-18T08:38:44;101563.66;;;-4.66;90.22
67373;BME280;54257;54.496;18.412;2022-12-18T08:41:13;101566.52;;;-4.63;89.96
67373;BME280;54257;54.496;18.412;2022-12-18T08:43:44;101566.45;;;-4.60;89.83
67373;BME280;54257;54.496;18.412;2022-12-18T08:46:38;101568.77;;;-4.54;89.90
67373;BME280;54257;54.496;18.412;2022-12-18T08:49:07;101569.78;;;-4.49;89.94
67373;BME280;54257;54.496;18.412;2022-12-18T08:51:35;101568.52;;;-4.43;89.90
67373;BME280;54257;54.496;18.412;2022-12-18T08:54:03;101567.23;;;-4.36;90.02
67373;BME280;54257;54.496;18.412;2022-12-18T08:56:30;101567.35;;;-4.30;89.84
67373;BME280;54257;54.496;18.412;2022-12-18T08:58:57;101563.54;;;-4.25;89.77
67373;BME280;54257;54.496;18.412;2022-12-18T09:01:24;101570.42;;;-4.21;89.74
67373;BME280;54257;54.496;18.412;2022-12-18T09:03:54;101569.99;;;-4.17;89.45
67373;BME280;54257;54.496;18.412;2022-12-18T09:06:32;101569.58;;;-4.16;89.18
67373;BME280;54257;54.496;18.412;2022-12-18T09:09:00;101566.55;;;-4.13;89.18
67373;BME280;54257;54.496;18.412;2022-12-18T09:11:28;101574.73;;;-4.11;89.09
67373;BME280;54257;54.496;18.412;2022-12-18T09:13:56;101578.27;;;-4.09;88.90
67373;BME280;54257;54.496;18.412;2022-12-18T09:16:25;101578.20;;;-4.07;88.70
67373;BME280;54257;54.496;18.412;2022-12-18T09:18:52;101573.83;;;-4.04;88.73
67373;BME280;54257;54.496;18.412;2022-12-18T09:21:28;101572.27;;;-4.01;88.61
67373;BME280;54257;54.496;18.412;2022-12-18T09:23:56;101578.39;;;-3.99;88.47
67373;BME280;54257;54.496;18.412;2022-12-18T09:26:24;101581.88;;;-3.96;88.60
67373;BME280;54257;54.496;18.412;2022-12-18T09:28:52;101580.63;;;-3.92;88.36
67373;BME280;54257;54.496;18.412;2022-12-18T09:31:22;101578.10;;;-3.90;88.21
67373;BME280;54257;54.496;18.412;2022-12-18T09:33:50;101584.48;;;-3.85;88.35
67373;BME280;54257;54.496;18.412;2022-12-18T09:36:18;101579.05;;;-3.83;88.12
67373;BME280;54257;54.496;18.412;2022-12-18T09:38:46;101577.42;;;-3.81;87.83
67373;BME280;54257;54.496;18.412;2022-12-18T09:49:29;101578.42;;;-3.71;87.49
67373;BME280;54257;54.496;18.412;2022-12-18T09:52:02;101581.33;;;-3.69;87.32
67373;BME280;54257;54.496;18.412;2022-12-18T09:54:38;101582.33;;;-3.64;87.28
67373;BME280;54257;54.496;18.412;2022-12-18T09:57:06;101585.86;;;-3.54;87.51
67373;BME280;54257;54.496;18.412;2022-12-18T09:59:38;101580.05;;;-3.40;87.80
67373;BME280;54257;54.496;18.412;2022-12-18T10:02:21;101569.25;;;-3.20;87.91
67373;BME280;54257;54.496;18.412;2022-12-18T10:05:10;101568.84;;;-3.00;87.44
67373;BME280;54257;54.496;18.412;2022-12-18T10:07:50;101566.48;;;-2.83;86.50
67373;BME280;54257;54.496;18.412;2022-12-18T10:11:20;101569.08;;;-2.70;85.20
67373;BME280;54257;54.496;18.412;2022-12-18T10:13:55;101578.55;;;-2.51;84.36
67373;BME280;54257;54.496;18.412;2022-12-18T10:27:14;101586.10;;;-1.77;80.78
67373;BME280;54257;54.496;18.412;2022-12-18T10:29:45;101586.91;;;-1.63;80.39
67373;BME280;54257;54.496;18.412;2022-12-18T10:32:18;101586.13;;;-1.44;80.94
67373;BME280;54257;54.496;18.412;2022-12-18T10:34:47;101590.48;;;-1.27;79.37
67373;BME280;54257;54.496;18.412;2022-12-18T10:37:20;101585.98;;;-1.14;79.45
67373;BME280;54257;54.496;18.412;2022-12-18T10:40:15;101581.60;;;-1.05;77.68
67373;BME280;54257;54.496;18.412;2022-12-18T10:42:43;101577.54;;;-0.90;77.87
67373;BME280;54257;54.496;18.412;2022-12-18T10:45:14;101581.40;;;-0.78;77.38
67373;BME280;54257;54.496;18.412;2022-12-18T10:47:47;101579.58;;;-0.76;76.14
67373;BME280;54257;54.496;18.412;2022-12-18T10:50:38;101573.98;;;-0.64;76.19
67373;BME280;54257;54.496;18.412;2022-12-18T10:53:18;101585.94;;;-0.58;74.59
67373;BME280;54257;54.496;18.412;2022-12-18T10:55:48;101588.21;;;-0.60;74.18
67373;BME280;54257;54.496;18.412;2022-12-18T10:58:34;101585.95;;;-0.59;73.72
67373;BME280;54257;54.496;18.412;2022-12-18T11:01:15;101583.82;;;-0.55;74.36
67373;BME280;54257;54.496;18.412;2022-12-18T11:03:45;101583.02;;;-0.39;74.45
67373;BME280;54257;54.496;18.412;2022-12-18T11:06:13;101581.66;;;-0.37;71.91
67373;BME280;54257;54.496;18.412;2022-12-18T11:08:43;101585.80;;;-0.38;72.52
67373;BME280;54257;54.496;18.412;2022-12-18T11:11:20;101589.98;;;-0.34;72.30
67373;BME280;54257;54.496;18.412;2022-12-18T11:14:14;101589.77;;;-0.29;71.26
67373;BME280;54257;54.496;18.412;2022-12-18T11:16:49;101585.16;;;-0.26;71.66
67373;BME280;54257;54.496;18.412;2022-12-18T11:19:38;101581.70;;;-0.17;71.19
67373;BME280;54257;54.496;18.412;2022-12-18T11:22:30;101579.83;;;-0.15;70.73
67373;BME280;54257;54.496;18.412;2022-12-18T11:27:51;101578.21;;;-0.29;69.46
67373;BME280;54257;54.496;18.412;2022-12-18T11:32:55;101582.95;;;-0.20;69.87
67373;BME280;54257;54.496;18.412;2022-12-18T11:38:24;101596.70;;;-0.24;68.93
67373;BME280;54257;54.496;18.412;2022-12-18T11:40:58;101604.11;;;-0.30;69.31
67373;BME280;54257;54.496;18.412;2022-12-18T11:43:50;101611.15;;;-0.38;69.37
67373;BME280;54257;54.496;18.412;2022-12-18T11:46:26;101615.40;;;-0.48;69.65
67373;BME280;54257;54.496;18.412;2022-12-18T11:49:15;101616.36;;;-0.55;69.64
67373;BME280;54257;54.496;18.412;2022-12-18T11:54:23;101614.92;;;-0.70;69.76
67373;BME280;54257;54.496;18.412;2022-12-18T11:56:58;101613.21;;;-0.77;69.99
67373;BME280;54257;54.496;18.412;2022-12-18T11:59:52;101611.04;;;-0.85;69.81
67373;BME280;54257;54.496;18.412;2022-12-18T12:11:26;101607.65;;;-1.12;70.55
67373;BME280;54257;54.496;18.412;2022-12-18T12:14:21;101608.63;;;-1.18;70.58
67373;BME280;54257;54.496;18.412;2022-12-18T12:20:05;101611.65;;;-1.04;70.91
67373;BME280;54257;54.496;18.412;2022-12-18T12:25:17;101606.98;;;-1.00;70.34
67373;BME280;54257;54.496;18.412;2022-12-18T12:28:14;101602.46;;;-0.95;70.11
67373;BME280;54257;54.496;18.412;2022-12-18T12:34:18;101608.14;;;-0.95;69.43
67373;BME280;54257;54.496;18.412;2022-12-18T12:39:47;101603.57;;;-1.05;69.35
67373;BME280;54257;54.496;18.412;2022-12-18T12:42:54;101596.68;;;-1.03;69.64
67373;BME280;54257;54.496;18.412;2022-12-18T12:46:07;101600.29;;;-1.08;69.45
67373;BME280;54257;54.496;18.412;2022-12-18T12:51:22;101595.14;;;-1.19;69.54
67373;BME280;54257;54.496;18.412;2022-12-18T12:53:52;101593.17;;;-1.18;69.78
67373;BME280;54257;54.496;18.412;2022-12-18T12:56:21;101589.88;;;-1.17;70.06
67373;BME280;54257;54.496;18.412;2022-12-18T12:59:00;101587.20;;;-1.19;69.99
67373;BME280;54257;54.496;18.412;2022-12-18T13:01:48;101585.77;;;-1.18;70.25
67373;BME280;54257;54.496;18.412;2022-12-18T13:07:24;101588.06;;;-1.23;70.42
67373;BME280;54257;54.496;18.412;2022-12-18T13:13:00;101600.04;;;-1.24;70.84
67373;BME280;54257;54.496;18.412;2022-12-18T13:20:42;101599.04;;;-1.36;71.43
67373;BME280;54257;54.496;18.412;2022-12-18T13:32:00;101606.95;;;-1.80;72.81
67373;BME280;54257;54.496;18.412;2022-12-18T13:36:45;101614.08;;;-2.04;73.79
67373;BME280;54257;54.496;18.412;2022-12-18T13:48:22;101610.08;;;-2.52;75.98
67373;BME280;54257;54.496;18.412;2022-12-18T13:51:01;101611.80;;;-2.59;76.37
67373;BME280;54257;54.496;18.412;2022-12-18T13:53:42;101607.17;;;-2.63;76.60
67373;BME280;54257;54.496;18.412;2022-12-18T13:56:20;101610.19;;;-2.67;76.78
67373;BME280;54257;54.496;18.412;2022-12-18T14:01:51;101608.63;;;-2.79;77.01
67373;BME280;54257;54.496;18.412;2022-12-18T14:04:27;101607.39;;;-2.82;77.18
67373;BME280;54257;54.496;18.412;2022-12-18T14:07:07;101604.98;;;-2.86;77.12
67373;BME280;54257;54.496;18.412;2022-12-18T14:09:40;101603.38;;;-2.92;77.11
67373;BME280;54257;54.496;18.412;2022-12-18T14:12:20;101603.41;;;-2.99;77.16
67373;BME280;54257;54.496;18.412;2022-12-18T14:15:26;101600.19;;;-3.09;77.36
67373;BME280;54257;54.496;18.412;2022-12-18T14:18:03;101601.23;;;-3.18;77.62
67373;BME280;54257;54.496;18.412;2022-12-18T14:20:44;101597.90;;;-3.26;78.01
67373;BME280;54257;54.496;18.412;2022-12-18T14:23:36;101593.19;;;-3.33;78.28
67373;BME280;54257;54.496;18.412;2022-12-18T14:26:29;101598.94;;;-3.41;78.52
67373;BME280;54257;54.496;18.412;2022-12-18T14:31:44;101607.95;;;-3.53;78.81
67373;BME280;54257;54.496;18.412;2022-12-18T14:34:17;101602.05;;;-3.55;78.88
67373;BME280;54257;54.496;18.412;2022-12-18T14:36:55;101607.03;;;-3.57;78.91
67373;BME280;54257;54.496;18.412;2022-12-18T14:39:22;101605.81;;;-3.59;79.03
67373;BME280;54257;54.496;18.412;2022-12-18T14:41:52;101611.11;;;-3.61;78.89
67373;BME280;54257;54.496;18.412;2022-12-18T14:44:19;101614.23;;;-3.63;79.01
67373;BME280;54257;54.496;18.412;2022-12-18T14:46:49;101617.64;;;-3.68;78.88
67373;BME280;54257;54.496;18.412;2022-12-18T14:49:34;101619.89;;;-3.71;78.91
67373;BME280;54257;54.496;18.412;2022-12-18T14:52:04;101623.64;;;-3.77;78.81
67373;BME280;54257;54.496;18.412;2022-12-18T14:54:35;101634.11;;;-3.82;78.82
67373;BME280;54257;54.496;18.412;2022-12-18T14:59:40;101635.39;;;-3.96;78.75
67373;BME280;54257;54.496;18.412;2022-12-18T15:02:20;101637.98;;;-4.01;78.80
67373;BME280;54257;54.496;18.412;2022-12-18T15:05:00;101643.54;;;-4.09;78.86